高雄終端管制區 - 高雄雷達席

METAR RCKH 310830Z 26011KT 230V290 9999 FEW018 SCT035 31/26 Q1009 NOSIG RMK 26011KT/R09 A2982=

站台狀態:Online
最後更新:2020-05-31 17:00:01